sensor_id;sensor_type;location;lat;lon;timestamp;temperature;humidity
20866;DHT22;10593;48.398;10.698;2023-04-03T00:00:06;10.10;45.20
20866;DHT22;10593;48.398;10.698;2023-04-03T00:02:32;10.00;45.00
20866;DHT22;10593;48.398;10.698;2023-04-03T00:04:58;10.10;45.00
20866;DHT22;10593;48.398;10.698;2023-04-03T00:07:23;10.00;44.90
20866;DHT22;10593;48.398;10.698;2023-04-03T00:09:49;10.00;44.90
20866;DHT22;10593;48.398;10.698;2023-04-03T00:12:14;10.10;45.00
20866;DHT22;10593;48.398;10.698;2023-04-03T00:14:41;10.10;45.00
20866;DHT22;10593;48.398;10.698;2023-04-03T00:17:06;10.00;44.90
20866;DHT22;10593;48.398;10.698;2023-04-03T00:19:32;10.00;44.90
20866;DHT22;10593;48.398;10.698;2023-04-03T00:21:58;10.00;44.80
20866;DHT22;10593;48.398;10.698;2023-04-03T00:24:23;10.00;44.70
20866;DHT22;10593;48.398;10.698;2023-04-03T00:26:49;10.00;44.60
20866;DHT22;10593;48.398;10.698;2023-04-03T00:29:15;10.00;44.60
20866;DHT22;10593;48.398;10.698;2023-04-03T00:31:40;10.00;44.60
20866;DHT22;10593;48.398;10.698;2023-04-03T00:34:06;10.00;44.60
20866;DHT22;10593;48.398;10.698;2023-04-03T00:36:32;10.00;44.70
20866;DHT22;10593;48.398;10.698;2023-04-03T00:38:57;10.00;44.60
20866;DHT22;10593;48.398;10.698;2023-04-03T00:41:23;10.00;44.60
20866;DHT22;10593;48.398;10.698;2023-04-03T00:43:48;10.00;44.40
20866;DHT22;10593;48.398;10.698;2023-04-03T00:46:14;10.00;44.50
20866;DHT22;10593;48.398;10.698;2023-04-03T00:48:45;10.00;44.40
20866;DHT22;10593;48.398;10.698;2023-04-03T00:51:24;9.90;45.30
20866;DHT22;10593;48.398;10.698;2023-04-03T00:54:01;9.90;45.20
20866;DHT22;10593;48.398;10.698;2023-04-03T00:56:30;9.90;45.20
20866;DHT22;10593;48.398;10.698;2023-04-03T00:59:03;9.90;45.30
20866;DHT22;10593;48.398;10.698;2023-04-03T01:01:33;9.90;45.20
20866;DHT22;10593;48.398;10.698;2023-04-03T01:04:00;9.90;45.20
20866;DHT22;10593;48.398;10.698;2023-04-03T01:06:29;9.80;45.00
20866;DHT22;10593;48.398;10.698;2023-04-03T01:08:58;9.80;45.00
20866;DHT22;10593;48.398;10.698;2023-04-03T01:11:24;9.80;45.10
20866;DHT22;10593;48.398;10.698;2023-04-03T01:13:51;9.80;44.90
20866;DHT22;10593;48.398;10.698;2023-04-03T01:16:17;9.80;44.70
20866;DHT22;10593;48.398;10.698;2023-04-03T01:18:44;9.80;44.70
20866;DHT22;10593;48.398;10.698;2023-04-03T01:24:22;9.70;44.40
20866;DHT22;10593;48.398;10.698;2023-04-03T01:26:57;9.70;44.50
20866;DHT22;10593;48.398;10.698;2023-04-03T01:29:23;9.70;44.70
20866;DHT22;10593;48.398;10.698;2023-04-03T01:31:57;9.70;44.80
20866;DHT22;10593;48.398;10.698;2023-04-03T01:34:25;9.70;44.70
20866;DHT22;10593;48.398;10.698;2023-04-03T01:36:51;9.70;44.80
20866;DHT22;10593;48.398;10.698;2023-04-03T01:39:18;9.60;44.80
20866;DHT22;10593;48.398;10.698;2023-04-03T01:41:44;9.60;44.70
20866;DHT22;10593;48.398;10.698;2023-04-03T01:44:10;9.60;44.70
20866;DHT22;10593;48.398;10.698;2023-04-03T01:46:36;9.60;44.80
20866;DHT22;10593;48.398;10.698;2023-04-03T01:49:03;9.60;44.80
20866;DHT22;10593;48.398;10.698;2023-04-03T01:51:30;9.60;44.70
20866;DHT22;10593;48.398;10.698;2023-04-03T01:53:55;9.60;44.70
20866;DHT22;10593;48.398;10.698;2023-04-03T01:56:21;9.60;44.80
20866;DHT22;10593;48.398;10.698;2023-04-03T01:58:47;9.60;44.80
20866;DHT22;10593;48.398;10.698;2023-04-03T02:01:13;9.60;44.70
20866;DHT22;10593;48.398;10.698;2023-04-03T02:03:39;9.60;44.70
20866;DHT22;10593;48.398;10.698;2023-04-03T02:06:05;9.60;44.80
20866;DHT22;10593;48.398;10.698;2023-04-03T02:08:31;9.60;44.70
20866;DHT22;10593;48.398;10.698;2023-04-03T02:10:56;9.60;44.70
20866;DHT22;10593;48.398;10.698;2023-04-03T02:13:22;9.50;44.60
20866;DHT22;10593;48.398;10.698;2023-04-03T02:15:48;9.50;44.60
20866;DHT22;10593;48.398;10.698;2023-04-03T02:18:14;9.50;44.50
20866;DHT22;10593;48.398;10.698;2023-04-03T02:20:40;9.50;44.50
20866;DHT22;10593;48.398;10.698;2023-04-03T02:23:06;9.50;44.50
20866;DHT22;10593;48.398;10.698;2023-04-03T02:25:32;9.50;44.60
20866;DHT22;10593;48.398;10.698;2023-04-03T02:27:58;9.50;44.60
20866;DHT22;10593;48.398;10.698;2023-04-03T02:30:24;9.50;44.60
20866;DHT22;10593;48.398;10.698;2023-04-03T02:32:50;9.50;44.60
20866;DHT22;10593;48.398;10.698;2023-04-03T02:35:16;9.50;44.50
20866;DHT22;10593;48.398;10.698;2023-04-03T02:37:41;9.50;44.60
20866;DHT22;10593;48.398;10.698;2023-04-03T02:40:08;9.50;44.70
20866;DHT22;10593;48.398;10.698;2023-04-03T02:42:34;9.40;44.60
20866;DHT22;10593;48.398;10.698;2023-04-03T02:44:59;9.40;44.60
20866;DHT22;10593;48.398;10.698;2023-04-03T02:47:28;9.40;44.60
20866;DHT22;10593;48.398;10.698;2023-04-03T02:49:54;9.40;44.70
20866;DHT22;10593;48.398;10.698;2023-04-03T02:52:20;9.40;44.70
20866;DHT22;10593;48.398;10.698;2023-04-03T02:54:46;9.40;44.70
20866;DHT22;10593;48.398;10.698;2023-04-03T02:57:12;9.40;44.60
20866;DHT22;10593;48.398;10.698;2023-04-03T02:59:38;9.40;44.60
20866;DHT22;10593;48.398;10.698;2023-04-03T03:02:08;9.40;44.60
20866;DHT22;10593;48.398;10.698;2023-04-03T03:04:34;9.40;44.60
20866;DHT22;10593;48.398;10.698;2023-04-03T03:07:00;9.30;44.50
20866;DHT22;10593;48.398;10.698;2023-04-03T03:09:26;9.30;44.40
20866;DHT22;10593;48.398;10.698;2023-04-03T03:11:52;9.30;44.40
20866;DHT22;10593;48.398;10.698;2023-04-03T03:14:18;9.30;44.40
20866;DHT22;10593;48.398;10.698;2023-04-03T03:16:43;9.20;44.40
20866;DHT22;10593;48.398;10.698;2023-04-03T03:19:09;9.20;44.50
20866;DHT22;10593;48.398;10.698;2023-04-03T03:21:35;9.20;44.40
20866;DHT22;10593;48.398;10.698;2023-04-03T03:24:01;9.20;44.40
20866;DHT22;10593;48.398;10.698;2023-04-03T03:26:27;9.20;44.40
20866;DHT22;10593;48.398;10.698;2023-04-03T03:28:53;9.10;44.30
20866;DHT22;10593;48.398;10.698;2023-04-03T03:31:18;9.10;44.30
20866;DHT22;10593;48.398;10.698;2023-04-03T03:33:44;9.10;44.40
20866;DHT22;10593;48.398;10.698;2023-04-03T03:36:10;9.10;44.40
20866;DHT22;10593;48.398;10.698;2023-04-03T03:38:36;9.10;44.50
20866;DHT22;10593;48.398;10.698;2023-04-03T03:41:02;9.00;44.50
20866;DHT22;10593;48.398;10.698;2023-04-03T03:43:28;9.00;44.60
20866;DHT22;10593;48.398;10.698;2023-04-03T03:45:55;9.00;44.60
20866;DHT22;10593;48.398;10.698;2023-04-03T03:48:21;9.00;44.60
20866;DHT22;10593;48.398;10.698;2023-04-03T03:50:48;9.00;44.60
20866;DHT22;10593;48.398;10.698;2023-04-03T03:53:14;8.90;44.50
20866;DHT22;10593;48.398;10.698;2023-04-03T03:55:40;8.90;44.50
20866;DHT22;10593;48.398;10.698;2023-04-03T03:58:06;8.90;44.50
20866;DHT22;10593;48.398;10.698;2023-04-03T04:00:31;8.90;44.60
20866;DHT22;10593;48.398;10.698;2023-04-03T04:02:58;8.90;44.60
20866;DHT22;10593;48.398;10.698;2023-04-03T04:05:23;8.90;44.60
20866;DHT22;10593;48.398;10.698;2023-04-03T04:07:49;8.90;44.60
20866;DHT22;10593;48.398;10.698;2023-04-03T04:10:15;8.90;44.60
20866;DHT22;10593;48.398;10.698;2023-04-03T04:12:40;8.80;44.60
20866;DHT22;10593;48.398;10.698;2023-04-03T04:15:07;8.80;44.80
20866;DHT22;10593;48.398;10.698;2023-04-03T04:17:33;8.80;44.80
20866;DHT22;10593;48.398;10.698;2023-04-03T04:20:00;8.80;44.80
20866;DHT22;10593;48.398;10.698;2023-04-03T04:22:28;8.70;44.70
20866;DHT22;10593;48.398;10.698;2023-04-03T04:24:53;8.70;44.70
20866;DHT22;10593;48.398;10.698;2023-04-03T04:27:19;8.70;44.70
20866;DHT22;10593;48.398;10.698;2023-04-03T04:29:44;8.70;44.80
20866;DHT22;10593;48.398;10.698;2023-04-03T04:32:10;8.60;44.90
20866;DHT22;10593;48.398;10.698;2023-04-03T04:34:36;8.60;44.90
20866;DHT22;10593;48.398;10.698;2023-04-03T04:37:02;8.60;44.90
20866;DHT22;10593;48.398;10.698;2023-04-03T04:39:28;8.60;45.00
20866;DHT22;10593;48.398;10.698;2023-04-03T04:41:53;8.60;44.90
20866;DHT22;10593;48.398;10.698;2023-04-03T04:44:19;8.60;44.90
20866;DHT22;10593;48.398;10.698;2023-04-03T04:46:45;8.60;45.00
20866;DHT22;10593;48.398;10.698;2023-04-03T04:49:11;8.60;45.00
20866;DHT22;10593;48.398;10.698;2023-04-03T04:51:37;8.50;44.90
20866;DHT22;10593;48.398;10.698;2023-04-03T04:54:02;8.50;44.90
20866;DHT22;10593;48.398;10.698;2023-04-03T04:56:28;8.50;44.90
20866;DHT22;10593;48.398;10.698;2023-04-03T04:58:53;8.50;45.00
20866;DHT22;10593;48.398;10.698;2023-04-03T05:01:19;8.50;45.00
20866;DHT22;10593;48.398;10.698;2023-04-03T05:03:45;8.50;45.00
20866;DHT22;10593;48.398;10.698;2023-04-03T05:06:11;8.50;45.00
20866;DHT22;10593;48.398;10.698;2023-04-03T05:08:37;8.50;45.10
20866;DHT22;10593;48.398;10.698;2023-04-03T05:11:02;8.50;45.00
20866;DHT22;10593;48.398;10.698;2023-04-03T05:13:28;8.50;45.00
20866;DHT22;10593;48.398;10.698;2023-04-03T05:15:54;8.50;45.00
20866;DHT22;10593;48.398;10.698;2023-04-03T05:18:19;8.50;45.10
20866;DHT22;10593;48.398;10.698;2023-04-03T05:20:45;8.40;45.10
20866;DHT22;10593;48.398;10.698;2023-04-03T05:23:14;8.40;45.30
20866;DHT22;10593;48.398;10.698;2023-04-03T05:25:40;8.40;45.20
20866;DHT22;10593;48.398;10.698;2023-04-03T05:28:06;8.40;45.20
20866;DHT22;10593;48.398;10.698;2023-04-03T05:30:32;8.40;45.20
20866;DHT22;10593;48.398;10.698;2023-04-03T05:32:58;8.40;45.30
20866;DHT22;10593;48.398;10.698;2023-04-03T05:35:24;8.40;45.20
20866;DHT22;10593;48.398;10.698;2023-04-03T05:37:50;8.40;45.30
20866;DHT22;10593;48.398;10.698;2023-04-03T05:40:16;8.40;45.40
20866;DHT22;10593;48.398;10.698;2023-04-03T05:42:43;8.40;46.00
20866;DHT22;10593;48.398;10.698;2023-04-03T05:45:09;8.40;45.30
20866;DHT22;10593;48.398;10.698;2023-04-03T05:47:35;8.30;45.30
20866;DHT22;10593;48.398;10.698;2023-04-03T05:50:01;8.40;45.50
20866;DHT22;10593;48.398;10.698;2023-04-03T05:52:29;8.40;45.50
20866;DHT22;10593;48.398;10.698;2023-04-03T05:54:57;8.30;45.50
20866;DHT22;10593;48.398;10.698;2023-04-03T05:57:23;8.30;45.50
20866;DHT22;10593;48.398;10.698;2023-04-03T05:59:49;8.30;45.60
20866;DHT22;10593;48.398;10.698;2023-04-03T06:02:20;8.30;45.50
20866;DHT22;10593;48.398;10.698;2023-04-03T06:04:47;8.30;45.50
20866;DHT22;10593;48.398;10.698;2023-04-03T06:07:18;8.30;45.60
20866;DHT22;10593;48.398;10.698;2023-04-03T06:09:47;8.30;45.60
20866;DHT22;10593;48.398;10.698;2023-04-03T06:12:13;8.30;45.70
20866;DHT22;10593;48.398;10.698;2023-04-03T06:14:38;8.20;45.70
20866;DHT22;10593;48.398;10.698;2023-04-03T06:17:04;8.30;45.90
20866;DHT22;10593;48.398;10.698;2023-04-03T06:19:31;8.30;45.90
20866;DHT22;10593;48.398;10.698;2023-04-03T06:21:57;8.20;45.80
20866;DHT22;10593;48.398;10.698;2023-04-03T06:24:23;8.30;45.90
20866;DHT22;10593;48.398;10.698;2023-04-03T06:26:51;8.20;45.90
20866;DHT22;10593;48.398;10.698;2023-04-03T06:29:21;8.20;45.90
20866;DHT22;10593;48.398;10.698;2023-04-03T06:31:47;8.30;46.00
20866;DHT22;10593;48.398;10.698;2023-04-03T06:34:14;8.20;46.00
20866;DHT22;10593;48.398;10.698;2023-04-03T06:36:41;8.20;45.90
20866;DHT22;10593;48.398;10.698;2023-04-03T06:39:09;8.20;46.00
20866;DHT22;10593;48.398;10.698;2023-04-03T06:41:39;8.20;46.00
20866;DHT22;10593;48.398;10.698;2023-04-03T06:44:05;8.20;46.20
20866;DHT22;10593;48.398;10.698;2023-04-03T06:46:31;8.10;46.10
20866;DHT22;10593;48.398;10.698;2023-04-03T06:48:57;8.20;46.30
20866;DHT22;10593;48.398;10.698;2023-04-03T06:51:25;8.20;46.40
20866;DHT22;10593;48.398;10.698;2023-04-03T06:53:54;8.10;46.40
20866;DHT22;10593;48.398;10.698;2023-04-03T06:56:22;8.20;46.50
20866;DHT22;10593;48.398;10.698;2023-04-03T06:58:48;8.20;46.40
20866;DHT22;10593;48.398;10.698;2023-04-03T07:01:16;8.10;46.30
20866;DHT22;10593;48.398;10.698;2023-04-03T07:03:45;8.20;46.60
20866;DHT22;10593;48.398;10.698;2023-04-03T07:06:12;8.20;46.40
20866;DHT22;10593;48.398;10.698;2023-04-03T07:08:40;8.10;46.30
20866;DHT22;10593;48.398;10.698;2023-04-03T07:11:08;8.10;46.20
20866;DHT22;10593;48.398;10.698;2023-04-03T07:13:35;8.10;46.30
20866;DHT22;10593;48.398;10.698;2023-04-03T07:16:02;8.10;46.30
20866;DHT22;10593;48.398;10.698;2023-04-03T07:18:29;8.10;46.80
20866;DHT22;10593;48.398;10.698;2023-04-03T07:20:55;8.10;46.20
20866;DHT22;10593;48.398;10.698;2023-04-03T07:23:21;8.10;46.20
20866;DHT22;10593;48.398;10.698;2023-04-03T07:25:48;8.00;46.20
20866;DHT22;10593;48.398;10.698;2023-04-03T07:28:16;8.00;46.30
20866;DHT22;10593;48.398;10.698;2023-04-03T07:30:47;8.10;46.50
20866;DHT22;10593;48.398;10.698;2023-04-03T07:33:15;8.00;46.50
20866;DHT22;10593;48.398;10.698;2023-04-03T07:35:42;8.00;46.60
20866;DHT22;10593;48.398;10.698;2023-04-03T07:38:09;8.10;46.60
20866;DHT22;10593;48.398;10.698;2023-04-03T07:40:36;8.10;46.60
20866;DHT22;10593;48.398;10.698;2023-04-03T07:43:02;8.00;46.60
20866;DHT22;10593;48.398;10.698;2023-04-03T07:45:29;8.10;46.80
20866;DHT22;10593;48.398;10.698;2023-04-03T07:47:54;8.10;46.90
20866;DHT22;10593;48.398;10.698;2023-04-03T07:50:21;8.10;46.90
20866;DHT22;10593;48.398;10.698;2023-04-03T07:52:48;8.10;47.00
20866;DHT22;10593;48.398;10.698;2023-04-03T07:55:14;8.10;47.00
20866;DHT22;10593;48.398;10.698;2023-04-03T07:57:39;8.10;47.10
20866;DHT22;10593;48.398;10.698;2023-04-03T08:00:07;8.10;47.00
20866;DHT22;10593;48.398;10.698;2023-04-03T08:02:34;8.20;47.00
20866;DHT22;10593;48.398;10.698;2023-04-03T08:05:00;8.20;46.80
20866;DHT22;10593;48.398;10.698;2023-04-03T08:07:25;8.20;46.80
20866;DHT22;10593;48.398;10.698;2023-04-03T08:09:52;8.20;46.80
20866;DHT22;10593;48.398;10.698;2023-04-03T08:12:18;8.20;46.80
20866;DHT22;10593;48.398;10.698;2023-04-03T08:14:43;8.20;46.80
20866;DHT22;10593;48.398;10.698;2023-04-03T08:17:09;8.20;47.00
20866;DHT22;10593;48.398;10.698;2023-04-03T08:19:38;8.20;47.00
20866;DHT22;10593;48.398;10.698;2023-04-03T08:22:04;8.20;47.00
20866;DHT22;10593;48.398;10.698;2023-04-03T08:24:34;8.20;47.00
20866;DHT22;10593;48.398;10.698;2023-04-03T08:27:00;8.20;47.00
20866;DHT22;10593;48.398;10.698;2023-04-03T08:29:26;8.20;47.00
20866;DHT22;10593;48.398;10.698;2023-04-03T08:31:52;8.20;47.10
20866;DHT22;10593;48.398;10.698;2023-04-03T08:34:19;8.20;47.10
20866;DHT22;10593;48.398;10.698;2023-04-03T08:36:45;8.20;47.00
20866;DHT22;10593;48.398;10.698;2023-04-03T08:39:11;8.20;46.90
20866;DHT22;10593;48.398;10.698;2023-04-03T08:41:39;8.20;46.80
20866;DHT22;10593;48.398;10.698;2023-04-03T08:47:11;8.30;47.10
20866;DHT22;10593;48.398;10.698;2023-04-03T08:50:01;8.30;47.10
20866;DHT22;10593;48.398;10.698;2023-04-03T08:52:41;8.30;47.20
20866;DHT22;10593;48.398;10.698;2023-04-03T08:55:27;8.30;47.20
20866;DHT22;10593;48.398;10.698;2023-04-03T08:58:03;8.30;47.10
20866;DHT22;10593;48.398;10.698;2023-04-03T09:00:50;8.30;47.10
20866;DHT22;10593;48.398;10.698;2023-04-03T09:03:21;8.30;47.00
20866;DHT22;10593;48.398;10.698;2023-04-03T09:06:03;8.30;47.10
20866;DHT22;10593;48.398;10.698;2023-04-03T09:11:27;8.30;47.10
20866;DHT22;10593;48.398;10.698;2023-04-03T09:23:17;8.40;47.20
20866;DHT22;10593;48.398;10.698;2023-04-03T09:25:49;8.40;47.70
20866;DHT22;10593;48.398;10.698;2023-04-03T09:28:19;8.40;47.10
20866;DHT22;10593;48.398;10.698;2023-04-03T09:30:45;8.40;47.00
20866;DHT22;10593;48.398;10.698;2023-04-03T09:33:12;8.40;46.70
20866;DHT22;10593;48.398;10.698;2023-04-03T09:35:40;8.40;46.50
20866;DHT22;10593;48.398;10.698;2023-04-03T09:40:37;8.40;46.40
20866;DHT22;10593;48.398;10.698;2023-04-03T09:45:50;8.40;46.40
20866;DHT22;10593;48.398;10.698;2023-04-03T09:48:22;8.40;46.50
20866;DHT22;10593;48.398;10.698;2023-04-03T09:58:50;8.40;46.50
20866;DHT22;10593;48.398;10.698;2023-04-03T10:01:27;8.50;46.70
20866;DHT22;10593;48.398;10.698;2023-04-03T10:04:17;8.50;46.60
20866;DHT22;10593;48.398;10.698;2023-04-03T10:06:49;8.50;46.50
20866;DHT22;10593;48.398;10.698;2023-04-03T10:09:23;8.50;46.60
20866;DHT22;10593;48.398;10.698;2023-04-03T10:12:12;8.50;46.70
20866;DHT22;10593;48.398;10.698;2023-04-03T10:14:55;8.50;46.60
20866;DHT22;10593;48.398;10.698;2023-04-03T10:20:37;8.60;46.20
20866;DHT22;10593;48.398;10.698;2023-04-03T10:23:21;8.60;46.20
20866;DHT22;10593;48.398;10.698;2023-04-03T10:31:37;8.60;45.60
20866;DHT22;10593;48.398;10.698;2023-04-03T10:34:35;8.50;45.60
20866;DHT22;10593;48.398;10.698;2023-04-03T10:37:13;8.60;45.70
20866;DHT22;10593;48.398;10.698;2023-04-03T10:40:02;8.60;45.70
20866;DHT22;10593;48.398;10.698;2023-04-03T10:43:36;8.60;45.70
20866;DHT22;10593;48.398;10.698;2023-04-03T10:46:28;8.60;45.50
20866;DHT22;10593;48.398;10.698;2023-04-03T10:52:11;8.60;45.40
20866;DHT22;10593;48.398;10.698;2023-04-03T10:58:19;8.60;45.10
20866;DHT22;10593;48.398;10.698;2023-04-03T11:00:54;8.60;45.30
20866;DHT22;10593;48.398;10.698;2023-04-03T11:03:36;8.60;45.30
20866;DHT22;10593;48.398;10.698;2023-04-03T11:06:09;8.70;45.20
20866;DHT22;10593;48.398;10.698;2023-04-03T11:08:45;8.70;45.20
20866;DHT22;10593;48.398;10.698;2023-04-03T11:11:21;8.70;45.10
20866;DHT22;10593;48.398;10.698;2023-04-03T11:16:39;8.70;45.20
20866;DHT22;10593;48.398;10.698;2023-04-03T11:19:33;8.80;45.00
20866;DHT22;10593;48.398;10.698;2023-04-03T11:22:30;8.80;44.80
20866;DHT22;10593;48.398;10.698;2023-04-03T11:25:06;8.80;44.50
20866;DHT22;10593;48.398;10.698;2023-04-03T11:27:59;8.80;44.70
20866;DHT22;10593;48.398;10.698;2023-04-03T11:30:44;8.80;44.40
20866;DHT22;10593;48.398;10.698;2023-04-03T11:33:28;8.80;44.40
20866;DHT22;10593;48.398;10.698;2023-04-03T11:36:29;8.80;44.40
20866;DHT22;10593;48.398;10.698;2023-04-03T11:39:01;8.80;44.50
20866;DHT22;10593;48.398;10.698;2023-04-03T11:41:38;8.80;44.70
20866;DHT22;10593;48.398;10.698;2023-04-03T11:44:23;8.70;44.50
20866;DHT22;10593;48.398;10.698;2023-04-03T11:46:57;8.70;44.50
20866;DHT22;10593;48.398;10.698;2023-04-03T11:49:56;8.80;44.60
20866;DHT22;10593;48.398;10.698;2023-04-03T11:58:03;8.80;44.40
20866;DHT22;10593;48.398;10.698;2023-04-03T12:00:59;8.80;44.40
20866;DHT22;10593;48.398;10.698;2023-04-03T12:04:07;8.70;43.80
20866;DHT22;10593;48.398;10.698;2023-04-03T12:09:01;8.70;43.80
20866;DHT22;10593;48.398;10.698;2023-04-03T12:11:47;8.80;43.70
20866;DHT22;10593;48.398;10.698;2023-04-03T12:14:15;8.80;43.80
20866;DHT22;10593;48.398;10.698;2023-04-03T12:16:45;8.80;43.80
20866;DHT22;10593;48.398;10.698;2023-04-03T12:24:30;8.80;43.80
20866;DHT22;10593;48.398;10.698;2023-04-03T12:47:00;9.00;43.70
20866;DHT22;10593;48.398;10.698;2023-04-03T12:49:38;9.00;43.70
20866;DHT22;10593;48.398;10.698;2023-04-03T12:55:28;9.10;43.60
20866;DHT22;10593;48.398;10.698;2023-04-03T12:57:53;9.10;43.60
20866;DHT22;10593;48.398;10.698;2023-04-03T13:00:37;9.10;43.70
20866;DHT22;10593;48.398;10.698;2023-04-03T13:03:06;9.10;43.50
20866;DHT22;10593;48.398;10.698;2023-04-03T13:05:45;9.10;43.60
20866;DHT22;10593;48.398;10.698;2023-04-03T13:08:13;9.20;43.60
20866;DHT22;10593;48.398;10.698;2023-04-03T13:11:09;9.20;43.50
20866;DHT22;10593;48.398;10.698;2023-04-03T13:13:37;9.20;42.90
20866;DHT22;10593;48.398;10.698;2023-04-03T13:16:10;9.20;43.00
20866;DHT22;10593;48.398;10.698;2023-04-03T13:18:38;9.30;43.10
20866;DHT22;10593;48.398;10.698;2023-04-03T13:21:17;9.30;43.10
20866;DHT22;10593;48.398;10.698;2023-04-03T13:23:48;9.30;42.90
20866;DHT22;10593;48.398;10.698;2023-04-03T13:26:18;9.30;42.50
20866;DHT22;10593;48.398;10.698;2023-04-03T13:28:46;9.30;42.30
20866;DHT22;10593;48.398;10.698;2023-04-03T13:33:53;9.40;41.40
20866;DHT22;10593;48.398;10.698;2023-04-03T13:36:26;9.30;41.20
20866;DHT22;10593;48.398;10.698;2023-04-03T13:39:06;9.40;41.20
20866;DHT22;10593;48.398;10.698;2023-04-03T13:41:48;9.40;40.90
20866;DHT22;10593;48.398;10.698;2023-04-03T13:47:15;9.40;41.10
20866;DHT22;10593;48.398;10.698;2023-04-03T13:49:58;9.40;41.20
20866;DHT22;10593;48.398;10.698;2023-04-03T13:53:00;9.40;41.20
20866;DHT22;10593;48.398;10.698;2023-04-03T13:55:35;9.40;40.90
20866;DHT22;10593;48.398;10.698;2023-04-03T14:00:37;9.30;40.90
20866;DHT22;10593;48.398;10.698;2023-04-03T14:05:52;9.30;40.50
20866;DHT22;10593;48.398;10.698;2023-04-03T14:08:19;9.40;40.60
20866;DHT22;10593;48.398;10.698;2023-04-03T14:10:45;9.40;40.60
20866;DHT22;10593;48.398;10.698;2023-04-03T14:13:17;9.40;40.50
20866;DHT22;10593;48.398;10.698;2023-04-03T14:15:45;9.40;40.10
20866;DHT22;10593;48.398;10.698;2023-04-03T14:18:15;9.30;39.90
20866;DHT22;10593;48.398;10.698;2023-04-03T14:20:43;9.40;39.80
20866;DHT22;10593;48.398;10.698;2023-04-03T14:23:09;9.30;39.40
20866;DHT22;10593;48.398;10.698;2023-04-03T14:25:36;9.40;39.60
20866;DHT22;10593;48.398;10.698;2023-04-03T14:28:17;9.40;39.70
20866;DHT22;10593;48.398;10.698;2023-04-03T14:30:46;9.40;39.50
20866;DHT22;10593;48.398;10.698;2023-04-03T14:33:15;9.40;40.10
20866;DHT22;10593;48.398;10.698;2023-04-03T14:35:43;9.40;39.90
20866;DHT22;10593;48.398;10.698;2023-04-03T14:38:21;9.50;40.00
20866;DHT22;10593;48.398;10.698;2023-04-03T14:40:53;9.50;39.40
20866;DHT22;10593;48.398;10.698;2023-04-03T14:43:19;9.50;39.60
20866;DHT22;10593;48.398;10.698;2023-04-03T14:45:46;9.50;39.40
20866;DHT22;10593;48.398;10.698;2023-04-03T14:48:19;9.50;39.20
20866;DHT22;10593;48.398;10.698;2023-04-03T14:50:49;9.50;39.20
20866;DHT22;10593;48.398;10.698;2023-04-03T14:53:16;9.60;39.10
20866;DHT22;10593;48.398;10.698;2023-04-03T14:55:45;9.60;38.80
20866;DHT22;10593;48.398;10.698;2023-04-03T14:58:16;9.60;38.70
20866;DHT22;10593;48.398;10.698;2023-04-03T15:00:44;9.60;38.70
20866;DHT22;10593;48.398;10.698;2023-04-03T15:03:21;9.60;38.60
20866;DHT22;10593;48.398;10.698;2023-04-03T15:05:48;9.60;38.10
20866;DHT22;10593;48.398;10.698;2023-04-03T15:08:23;9.60;38.10
20866;DHT22;10593;48.398;10.698;2023-04-03T15:10:51;9.60;37.80
20866;DHT22;10593;48.398;10.698;2023-04-03T15:13:19;9.60;37.90
20866;DHT22;10593;48.398;10.698;2023-04-03T15:15:46;9.60;37.60
20866;DHT22;10593;48.398;10.698;2023-04-03T15:18:19;9.60;37.40
20866;DHT22;10593;48.398;10.698;2023-04-03T15:20:47;9.60;37.00
20866;DHT22;10593;48.398;10.698;2023-04-03T15:23:14;9.60;37.30
20866;DHT22;10593;48.398;10.698;2023-04-03T15:25:43;9.60;37.50
20866;DHT22;10593;48.398;10.698;2023-04-03T15:28:32;9.60;36.60
20866;DHT22;10593;48.398;10.698;2023-04-03T15:31:00;9.60;36.10
20866;DHT22;10593;48.398;10.698;2023-04-03T15:33:27;9.60;36.70
20866;DHT22;10593;48.398;10.698;2023-04-03T15:35:54;9.60;36.40
20866;DHT22;10593;48.398;10.698;2023-04-03T15:38:20;9.50;36.20
20866;DHT22;10593;48.398;10.698;2023-04-03T15:40:45;9.50;36.30
20866;DHT22;10593;48.398;10.698;2023-04-03T15:43:12;9.50;36.20
20866;DHT22;10593;48.398;10.698;2023-04-03T15:45:39;9.50;36.10
20866;DHT22;10593;48.398;10.698;2023-04-03T15:48:06;9.60;36.30
20866;DHT22;10593;48.398;10.698;2023-04-03T15:50:33;9.50;36.40
20866;DHT22;10593;48.398;10.698;2023-04-03T15:52:59;9.60;36.50
20866;DHT22;10593;48.398;10.698;2023-04-03T15:55:28;9.60;36.50
20866;DHT22;10593;48.398;10.698;2023-04-03T15:57:56;9.60;36.30
20866;DHT22;10593;48.398;10.698;2023-04-03T16:00:23;9.60;36.00
20866;DHT22;10593;48.398;10.698;2023-04-03T16:02:53;9.60;35.80
20866;DHT22;10593;48.398;10.698;2023-04-03T16:05:23;9.70;35.20
20866;DHT22;10593;48.398;10.698;2023-04-03T16:07:49;9.70;35.30
20866;DHT22;10593;48.398;10.698;2023-04-03T16:10:16;9.70;35.40
20866;DHT22;10593;48.398;10.698;2023-04-03T16:12:43;9.70;35.40
20866;DHT22;10593;48.398;10.698;2023-04-03T16:15:09;9.70;35.40
20866;DHT22;10593;48.398;10.698;2023-04-03T16:17:37;9.60;35.40
20866;DHT22;10593;48.398;10.698;2023-04-03T16:20:04;9.70;35.50
20866;DHT22;10593;48.398;10.698;2023-04-03T16:22:32;9.70;35.40
20866;DHT22;10593;48.398;10.698;2023-04-03T16:24:58;9.70;35.10
20866;DHT22;10593;48.398;10.698;2023-04-03T16:27:25;9.70;34.80
20866;DHT22;10593;48.398;10.698;2023-04-03T16:29:54;9.70;35.10
20866;DHT22;10593;48.398;10.698;2023-04-03T16:32:24;9.60;35.10
20866;DHT22;10593;48.398;10.698;2023-04-03T16:34:53;9.70;35.40
20866;DHT22;10593;48.398;10.698;2023-04-03T16:37:19;9.70;35.40
20866;DHT22;10593;48.398;10.698;2023-04-03T16:39:44;9.70;35.40
20866;DHT22;10593;48.398;10.698;2023-04-03T16:42:10;9.70;35.40
20866;DHT22;10593;48.398;10.698;2023-04-03T16:44:36;9.70;35.30
20866;DHT22;10593;48.398;10.698;2023-04-03T16:47:02;9.70;35.40
20866;DHT22;10593;48.398;10.698;2023-04-03T16:49:28;9.70;35.40
20866;DHT22;10593;48.398;10.698;2023-04-03T16:52:01;9.70;35.40
20866;DHT22;10593;48.398;10.698;2023-04-03T16:54:28;9.70;35.30
20866;DHT22;10593;48.398;10.698;2023-04-03T16:56:55;9.70;35.20
20866;DHT22;10593;48.398;10.698;2023-04-03T16:59:21;9.70;35.00
20866;DHT22;10593;48.398;10.698;2023-04-03T17:01:46;9.70;35.00
20866;DHT22;10593;48.398;10.698;2023-04-03T17:04:12;9.70;35.30
20866;DHT22;10593;48.398;10.698;2023-04-03T17:06:39;9.70;34.80
20866;DHT22;10593;48.398;10.698;2023-04-03T17:09:05;9.70;34.60
20866;DHT22;10593;48.398;10.698;2023-04-03T17:11:32;9.70;34.60
20866;DHT22;10593;48.398;10.698;2023-04-03T17:13:57;9.70;34.90
20866;DHT22;10593;48.398;10.698;2023-04-03T17:16:24;9.60;34.50
20866;DHT22;10593;48.398;10.698;2023-04-03T17:18:50;9.70;34.60
20866;DHT22;10593;48.398;10.698;2023-04-03T17:21:18;9.60;34.70